Time;durP1;ratioP1;P1;durP2;ratioP2;P2;SDS_P1;SDS_P2;PMS_P1;PMS_P2;Temp;Humidity;BMP_temperature;BMP_pressure;BME280_temperature;BME280_humidity;BME280_pressure;Samples;Min_cycle;Max_cycle;Signal;HPM_P1;HPM_P2
2023/03/26 00:00:04;;;;;;;7.82;4.20;;;;;;;;;;1034212;28;20029;-75
2023/03/26 00:00:36;;;;;;;6.05;3.55;;;;;;;;;;1033616;28;20073;-75
2023/03/26 00:01:09;;;;;;;13.10;6.38;;;;;;;;;;1034104;28;20030;-76
2023/03/26 00:01:40;;;;;;;8.50;4.38;;;;;;;;;;1033068;28;20030;-76
2023/03/26 00:02:10;;;;;;;14.80;5.47;;;;;;;;;;1033958;28;20069;-75
2023/03/26 00:02:41;;;;;;;12.15;5.70;;;;;;;;;;1033799;28;20399;-76
2023/03/26 00:03:12;;;;;;;7.32;3.85;;;;;;;;;;1033834;28;20018;-76
2023/03/26 00:03:45;;;;;;;4.88;3.30;;;;;;;;;;1033557;28;20496;-76
2023/03/26 00:04:20;;;;;;;6.10;3.67;;;;;;;;;;1034994;28;20025;-76
2023/03/26 00:04:52;;;;;;;7.85;4.22;;;;;;;;;;1033351;28;20431;-75
2023/03/26 00:05:22;;;;;;;17.65;7.93;;;;;;;;;;1034097;28;20018;-75
2023/03/26 00:06:06;;;;;;;10.27;5.05;;;;;;;;;;1034139;28;20486;-76
2023/03/26 00:06:38;;;;;;;23.77;6.75;;;;;;;;;;1031816;28;20088;-76
2023/03/26 00:07:09;;;;;;;19.63;6.38;;;;;;;;;;1033988;28;20027;-76
2023/03/26 00:07:40;;;;;;;7.05;4.70;;;;;;;;;;1033005;28;20120;-75
2023/03/26 00:08:10;;;;;;;29.85;5.30;;;;;;;;;;1034106;28;20022;-75
2023/03/26 00:08:41;;;;;;;8.63;4.40;;;;;;;;;;1033328;28;20108;-75
2023/03/26 00:09:12;;;;;;;6.72;4.05;;;;;;;;;;1033853;28;20026;-75
2023/03/26 00:09:43;;;;;;;22.98;4.97;;;;;;;;;;1033549;28;20049;-76
2023/03/26 00:10:14;;;;;;;13.43;6.70;;;;;;;;;;1033780;28;20026;-75
2023/03/26 00:10:45;;;;;;;4.80;3.10;;;;;;;;;;1033621;28;20487;-75
2023/03/26 00:11:17;;;;;;;14.57;6.88;;;;;;;;;;1029698;28;20018;-76
2023/03/26 00:11:47;;;;;;;20.75;7.65;;;;;;;;;;1029979;28;20041;-75
2023/03/26 00:12:18;;;;;;;8.10;4.22;;;;;;;;;;1033893;28;20030;-75
2023/03/26 00:12:48;;;;;;;6.30;3.35;;;;;;;;;;1033170;28;20116;-75
2023/03/26 00:13:19;;;;;;;12.80;6.47;;;;;;;;;;1034009;28;20029;-76
2023/03/26 00:13:52;;;;;;;10.82;4.75;;;;;;;;;;1033655;28;20030;-76
2023/03/26 00:14:23;;;;;;;11.60;4.10;;;;;;;;;;1033702;28;20125;-76
2023/03/26 00:14:53;;;;;;;7.45;4.07;;;;;;;;;;1033367;28;20025;-75
2023/03/26 00:15:23;;;;;;;8.73;3.75;;;;;;;;;;1034090;28;20029;-75
2023/03/26 00:15:54;;;;;;;10.50;5.72;;;;;;;;;;1033803;28;20022;-75
2023/03/26 00:16:26;;;;;;;14.02;5.28;;;;;;;;;;1033599;28;20585;-76
2023/03/26 00:16:57;;;;;;;15.15;6.53;;;;;;;;;;1034169;28;20394;-76
2023/03/26 00:17:27;;;;;;;3.38;2.85;;;;;;;;;;1033481;28;20109;-75
2023/03/26 00:17:59;;;;;;;10.05;5.15;;;;;;;;;;1033673;28;20558;-75
2023/03/26 00:18:30;;;;;;;7.15;4.93;;;;;;;;;;1033434;28;20112;-75
2023/03/26 00:19:01;;;;;;;9.50;5.07;;;;;;;;;;1033819;28;20025;-76
2023/03/26 00:19:32;;;;;;;7.32;3.03;;;;;;;;;;1034518;28;20025;-76
2023/03/26 00:20:04;;;;;;;11.07;4.45;;;;;;;;;;1033952;28;20108;-75
2023/03/26 00:20:34;;;;;;;9.70;4.85;;;;;;;;;;1033053;28;20030;-75
2023/03/26 00:21:06;;;;;;;6.47;4.57;;;;;;;;;;1033888;28;20496;-75
2023/03/26 00:21:37;;;;;;;8.40;5.03;;;;;;;;;;1033479;28;20112;-75
2023/03/26 00:22:10;;;;;;;7.20;2.65;;;;;;;;;;1033496;28;20375;-75
2023/03/26 00:22:40;;;;;;;17.92;4.63;;;;;;;;;;1032856;28;20099;-76
2023/03/26 00:23:10;;;;;;;12.02;4.30;;;;;;;;;;1034619;28;20026;-75
2023/03/26 00:23:42;;;;;;;5.22;3.30;;;;;;;;;;1033491;28;20453;-75
2023/03/26 00:24:16;;;;;;;12.52;4.53;;;;;;;;;;1034229;28;20030;-75
2023/03/26 00:24:49;;;;;;;9.70;3.58;;;;;;;;;;1034635;28;20141;-75
2023/03/26 00:25:23;;;;;;;11.02;3.55;;;;;;;;;;1033692;28;20383;-75
2023/03/26 00:25:54;;;;;;;12.82;4.78;;;;;;;;;;1033333;28;20734;-76
2023/03/26 00:26:25;;;;;;;11.43;5.05;;;;;;;;;;1029538;28;20089;-75
2023/03/26 00:26:56;;;;;;;11.07;4.07;;;;;;;;;;1029588;28;20033;-75
2023/03/26 00:27:28;;;;;;;6.55;4.72;;;;;;;;;;1030331;28;20025;-75
2023/03/26 00:27:58;;;;;;;8.20;4.85;;;;;;;;;;1033706;28;20537;-75
2023/03/26 00:29:03;;;;;;;6.78;3.88;;;;;;;;;;1033705;28;20088;-74
2023/03/26 00:29:34;;;;;;;9.82;4.50;;;;;;;;;;1039206;28;20024;-74
2023/03/26 00:30:06;;;;;;;16.85;4.85;;;;;;;;;;1039946;28;20474;-75
2023/03/26 00:30:40;;;;;;;7.00;3.22;;;;;;;;;;1039925;28;20466;-74
2023/03/26 00:31:13;;;;;;;15.25;5.15;;;;;;;;;;1039736;28;20022;-74
2023/03/26 00:31:44;;;;;;;10.52;6.20;;;;;;;;;;1039625;28;20029;-74
2023/03/26 00:32:15;;;;;;;11.07;4.95;;;;;;;;;;1039837;28;20025;-74
2023/03/26 00:32:46;;;;;;;5.93;4.25;;;;;;;;;;1039493;28;20403;-75
2023/03/26 00:33:16;;;;;;;10.40;2.92;;;;;;;;;;1039489;28;20021;-74
2023/03/26 00:33:47;;;;;;;17.23;5.35;;;;;;;;;;1035569;28;20030;-74
2023/03/26 00:34:17;;;;;;;8.30;3.95;;;;;;;;;;1031596;28;20022;-74
2023/03/26 00:34:50;;;;;;;6.93;3.92;;;;;;;;;;1031471;28;20033;-74
2023/03/26 00:35:21;;;;;;;4.30;1.83;;;;;;;;;;1031568;28;20333;-74
2023/03/26 00:35:52;;;;;;;13.38;4.30;;;;;;;;;;1031941;28;20026;-74
2023/03/26 00:36:24;;;;;;;4.95;3.63;;;;;;;;;;1035524;28;20083;-74
2023/03/26 00:36:54;;;;;;;11.48;5.13;;;;;;;;;;1035483;28;20025;-74
2023/03/26 00:37:25;;;;;;;4.45;3.22;;;;;;;;;;1035451;28;20018;-74
2023/03/26 00:37:57;;;;;;;12.45;3.83;;;;;;;;;;1035674;28;20052;-75
2023/03/26 00:38:27;;;;;;;10.82;4.50;;;;;;;;;;1035433;28;20113;-75
2023/03/26 00:38:58;;;;;;;8.40;3.65;;;;;;;;;;1035728;28;20140;-75
2023/03/26 00:39:32;;;;;;;10.35;5.45;;;;;;;;;;1035862;28;20018;-75
2023/03/26 00:40:07;;;;;;;12.20;3.65;;;;;;;;;;1035556;28;20037;-75
2023/03/26 00:40:37;;;;;;;6.25;4.45;;;;;;;;;;1035179;28;20091;-75
2023/03/26 00:41:16;;;;;;;13.73;7.80;;;;;;;;;;1035713;28;20068;-75
2023/03/26 00:41:47;;;;;;;10.13;3.55;;;;;;;;;;1035432;28;20034;-75
2023/03/26 00:42:17;;;;;;;13.40;7.13;;;;;;;;;;1032714;28;20057;-75
2023/03/26 00:42:47;;;;;;;8.02;5.88;;;;;;;;;;1035387;28;20025;-75
2023/03/26 00:43:19;;;;;;;8.95;6.15;;;;;;;;;;1033551;28;20021;-75
2023/03/26 00:43:52;;;;;;;13.63;5.28;;;;;;;;;;1033547;28;20030;-75
2023/03/26 00:44:22;;;;;;;5.57;4.57;;;;;;;;;;1033514;28;20447;-75
2023/03/26 00:44:56;;;;;;;7.88;4.38;;;;;;;;;;1034065;28;20053;-75
2023/03/26 00:45:27;;;;;;;10.27;5.10;;;;;;;;;;1034749;28;20057;-75
2023/03/26 00:45:57;;;;;;;8.38;5.30;;;;;;;;;;1035762;28;20467;-75
2023/03/26 00:46:29;;;;;;;25.45;5.57;;;;;;;;;;1035707;28;20397;-75
2023/03/26 00:46:59;;;;;;;4.82;3.35;;;;;;;;;;1036078;28;20508;-75
2023/03/26 00:47:30;;;;;;;13.02;3.40;;;;;;;;;;1035362;28;20022;-75
2023/03/26 00:48:00;;;;;;;26.15;4.50;;;;;;;;;;1035731;28;20033;-75
2023/03/26 00:48:33;;;;;;;8.43;3.97;;;;;;;;;;1035193;28;20029;-75
2023/03/26 00:49:04;;;;;;;6.00;4.03;;;;;;;;;;1035263;28;20108;-75
2023/03/26 00:49:34;;;;;;;8.98;3.45;;;;;;;;;;1035460;28;20592;-75
2023/03/26 00:50:06;;;;;;;4.43;2.42;;;;;;;;;;1035693;28;20033;-74
2023/03/26 00:50:36;;;;;;;6.35;2.63;;;;;;;;;;1035700;28;20422;-75
2023/03/26 00:51:08;;;;;;;5.80;2.47;;;;;;;;;;1036282;28;20108;-74
2023/03/26 00:51:38;;;;;;;14.10;3.72;;;;;;;;;;1035532;28;20120;-75
2023/03/26 00:52:08;;;;;;;7.53;4.57;;;;;;;;;;1035714;28;20022;-73
2023/03/26 00:52:39;;;;;;;10.45;4.00;;;;;;;;;;1033454;28;20371;-75
2023/03/26 00:53:13;;;;;;;6.93;3.47;;;;;;;;;;1033634;28;20025;-75
2023/03/26 00:53:45;;;;;;;12.18;5.78;;;;;;;;;;1035355;28;20593;-74
2023/03/26 00:54:16;;;;;;;12.00;2.47;;;;;;;;;;1035816;28;20037;-75
2023/03/26 00:54:47;;;;;;;10.60;5.35;;;;;;;;;;1035681;28;20022;-75
2023/03/26 00:55:17;;;;;;;8.38;5.05;;;;;;;;;;1036007;28;20022;-75
2023/03/26 00:55:48;;;;;;;7.72;4.10;;;;;;;;;;1034276;28;20037;-75
2023/03/26 00:56:18;;;;;;;6.38;2.97;;;;;;;;;;1031569;28;20036;-75
2023/03/26 00:56:49;;;;;;;13.57;4.38;;;;;;;;;;1031299;28;20026;-75
2023/03/26 00:57:28;;;;;;;2.67;2.47;;;;;;;;;;1029786;28;20022;-75
2023/03/26 00:57:59;;;;;;;13.50;3.70;;;;;;;;;;1030528;28;20050;-75
2023/03/26 00:58:29;;;;;;;3.63;3.00;;;;;;;;;;1031306;28;20073;-75
2023/03/26 00:59:00;;;;;;;5.43;2.63;;;;;;;;;;1032972;28;20022;-75
2023/03/26 00:59:30;;;;;;;5.53;4.10;;;;;;;;;;1035475;28;20107;-75
2023/03/26 01:00:14;;;;;;;4.57;3.33;;;;;;;;;;1035593;28;20117;-75
2023/03/26 01:00:49;;;;;;;2.53;1.95;;;;;;;;;;1033172;28;20121;-75
2023/03/26 01:01:26;;;;;;;8.40;3.50;;;;;;;;;;1033437;28;20022;-76
2023/03/26 01:01:57;;;;;;;3.50;2.05;;;;;;;;;;1038951;28;20028;-76
2023/03/26 01:02:28;;;;;;;1.92;1.83;;;;;;;;;;1040891;28;20036;-75
2023/03/26 01:02:58;;;;;;;3.38;1.60;;;;;;;;;;1043925;28;20056;-75
2023/03/26 01:03:32;;;;;;;3.10;1.85;;;;;;;;;;1043380;28;20040;-75
2023/03/26 01:04:22;;;;;;;6.28;4.07;;;;;;;;;;1039166;28;20036;-75
2023/03/26 01:05:01;;;;;;;8.63;3.10;;;;;;;;;;1035403;28;20889;-75
2023/03/26 01:05:34;;;;;;;8.18;3.22;;;;;;;;;;1035177;28;20022;-76
2023/03/26 01:06:31;;;;;;;4.82;3.65;;;;;;;;;;1035772;28;20116;-75
2023/03/26 01:07:21;;;;;;;5.25;4.00;;;;;;;;;;1031101;28;20072;-75
2023/03/26 01:07:51;;;;;;;9.63;3.45;;;;;;;;;;1035668;28;20026;-75
2023/03/26 01:08:29;;;;;;;5.15;3.35;;;;;;;;;;1035770;28;20113;-75
2023/03/26 01:09:12;;;;;;;10.77;2.50;;;;;;;;;;1035000;28;20026;-75
2023/03/26 01:09:49;;;;;;;5.85;2.50;;;;;;;;;;1035357;28;20417;-76
2023/03/26 01:10:21;;;;;;;2.78;2.40;;;;;;;;;;1035371;28;20028;-75
2023/03/26 01:11:01;;;;;;;6.05;1.85;;;;;;;;;;1035482;28;20041;-75
2023/03/26 01:11:33;;;;;;;6.75;4.25;;;;;;;;;;1035690;28;20033;-75
2023/03/26 01:12:05;;;;;;;8.60;4.57;;;;;;;;;;1035545;28;20018;-74
2023/03/26 01:12:36;;;;;;;4.70;4.10;;;;;;;;;;1038984;28;20029;-75
2023/03/26 01:13:07;;;;;;;7.65;3.53;;;;;;;;;;1039646;28;20025;-75
2023/03/26 01:13:38;;;;;;;6.60;4.47;;;;;;;;;;1039812;28;20120;-77
2023/03/26 01:14:27;;;;;;;5.22;2.15;;;;;;;;;;1043469;28;20013;-75
2023/03/26 01:14:59;;;;;;;11.95;6.55;;;;;;;;;;1038846;28;20021;-76
2023/03/26 01:15:30;;;;;;;21.98;5.85;;;;;;;;;;1035221;28;20401;-76
2023/03/26 01:16:01;;;;;;;13.65;8.10;;;;;;;;;;1035584;28;20032;-75
2023/03/26 01:16:43;;;;;;;13.50;9.25;;;;;;;;;;1035257;28;20108;-75
2023/03/26 01:17:14;;;;;;;9.82;7.40;;;;;;;;;;1033437;28;20117;-76
2023/03/26 01:17:45;;;;;;;14.05;7.70;;;;;;;;;;1034472;28;20023;-76
2023/03/26 01:18:20;;;;;;;117.95;54.53;;;;;;;;;;1035547;28;20536;-76
2023/03/26 01:18:52;;;;;;;159.65;66.05;;;;;;;;;;1035178;28;20032;-75
2023/03/26 01:19:36;;;;;;;208.23;92.53;;;;;;;;;;1035748;28;20017;-76
2023/03/26 01:20:14;;;;;;;178.88;71.65;;;;;;;;;;1035937;28;20105;-75
2023/03/26 01:20:45;;;;;;;208.88;88.03;;;;;;;;;;1035050;28;20108;-75
2023/03/26 01:21:21;;;;;;;208.90;83.45;;;;;;;;;;1035688;28;20021;-75
2023/03/26 01:21:51;;;;;;;179.00;75.82;;;;;;;;;;1034992;28;20030;-75
2023/03/26 01:22:23;;;;;;;175.93;77.03;;;;;;;;;;1035459;28;20022;-75
2023/03/26 01:22:58;;;;;;;142.00;66.75;;;;;;;;;;1035274;28;20037;-75
2023/03/26 01:23:33;;;;;;;148.38;58.88;;;;;;;;;;1034442;28;20040;-76
2023/03/26 01:24:08;;;;;;;143.23;58.03;;;;;;;;;;1030834;28;20030;-76
2023/03/26 01:24:39;;;;;;;138.07;50.42;;;;;;;;;;1031307;28;20026;-75
2023/03/26 01:25:11;;;;;;;140.27;58.70;;;;;;;;;;1032872;28;20014;-75
2023/03/26 01:25:43;;;;;;;119.95;47.72;;;;;;;;;;1033823;28;20555;-75
2023/03/26 01:26:26;;;;;;;113.22;44.35;;;;;;;;;;1035510;28;20683;-75
2023/03/26 01:27:03;;;;;;;81.97;32.33;;;;;;;;;;1035479;28;20037;-75
2023/03/26 01:27:45;;;;;;;49.30;24.92;;;;;;;;;;1035500;28;20022;-75
2023/03/26 01:28:17;;;;;;;108.18;41.95;;;;;;;;;;1035362;28;20061;-75
2023/03/26 01:28:48;;;;;;;141.80;62.20;;;;;;;;;;1035176;28;20588;-76
2023/03/26 01:29:38;;;;;;;153.63;60.60;;;;;;;;;;1035584;28;20422;-76
2023/03/26 01:30:11;;;;;;;147.48;59.30;;;;;;;;;;1035418;28;20478;-75
2023/03/26 01:30:48;;;;;;;147.98;63.72;;;;;;;;;;1034270;28;20524;-76
2023/03/26 01:31:24;;;;;;;156.35;58.63;;;;;;;;;;1035505;28;20021;-75
2023/03/26 01:32:09;;;;;;;164.27;60.92;;;;;;;;;;1035624;28;20510;-75
2023/03/26 01:32:40;;;;;;;159.27;55.92;;;;;;;;;;1035629;28;20025;-75
2023/03/26 01:33:32;;;;;;;134.07;56.08;;;;;;;;;;1035503;28;20115;-75
2023/03/26 01:34:11;;;;;;;121.43;46.10;;;;;;;;;;1035600;28;20026;-75
2023/03/26 01:34:50;;;;;;;66.13;30.08;;;;;;;;;;1035162;28;20049;-75
2023/03/26 01:35:24;;;;;;;47.63;22.35;;;;;;;;;;1035514;28;20470;-75
2023/03/26 01:36:00;;;;;;;30.35;15.27;;;;;;;;;;1035618;28;20058;-75
2023/03/26 01:36:36;;;;;;;33.25;17.15;;;;;;;;;;1034870;28;20604;-76
2023/03/26 01:37:19;;;;;;;42.83;15.45;;;;;;;;;;1035528;28;20025;-76
2023/03/26 01:37:57;;;;;;;36.58;18.13;;;;;;;;;;1035174;28;20029;-76
2023/03/26 01:38:36;;;;;;;43.72;17.73;;;;;;;;;;1035123;28;20600;-76
2023/03/26 01:39:18;;;;;;;24.17;13.32;;;;;;;;;;1035143;28;20025;-75
2023/03/26 01:39:56;;;;;;;25.27;12.38;;;;;;;;;;1035346;28;20022;-75
2023/03/26 01:40:30;;;;;;;22.02;14.32;;;;;;;;;;1035534;28;20018;-75
2023/03/26 01:41:03;;;;;;;35.95;11.88;;;;;;;;;;1035491;28;20018;-75
2023/03/26 01:41:45;;;;;;;28.65;13.10;;;;;;;;;;1035224;28;20032;-75
2023/03/26 01:42:20;;;;;;;37.97;13.02;;;;;;;;;;1034836;28;20022;-75
2023/03/26 01:43:11;;;;;;;22.55;11.27;;;;;;;;;;1034658;28;20026;-75
2023/03/26 01:43:44;;;;;;;13.63;6.30;;;;;;;;;;1030524;28;20467;-75
2023/03/26 01:44:33;;;;;;;20.33;9.65;;;;;;;;;;1030802;28;20033;-76
2023/03/26 01:45:10;;;;;;;18.10;7.60;;;;;;;;;;1035313;28;20101;-75
2023/03/26 01:45:41;;;;;;;14.55;7.55;;;;;;;;;;1035382;28;20037;-75
2023/03/26 01:46:13;;;;;;;12.60;5.93;;;;;;;;;;1034758;28;20033;-75
2023/03/26 01:46:44;;;;;;;8.75;3.95;;;;;;;;;;1035519;28;20014;-75
2023/03/26 01:47:15;;;;;;;10.50;6.35;;;;;;;;;;1035754;28;20508;-75
2023/03/26 01:47:45;;;;;;;5.78;2.90;;;;;;;;;;1035168;28;20018;-75
2023/03/26 01:48:16;;;;;;;8.05;4.88;;;;;;;;;;1035469;28;20025;-76
2023/03/26 01:48:47;;;;;;;15.02;5.72;;;;;;;;;;1035174;28;20108;-75
2023/03/26 01:49:18;;;;;;;12.05;4.18;;;;;;;;;;1035541;28;20080;-75
2023/03/26 01:49:48;;;;;;;7.50;4.13;;;;;;;;;;1035580;28;20025;-75
2023/03/26 01:50:19;;;;;;;7.47;4.55;;;;;;;;;;1035828;28;20057;-75
2023/03/26 01:50:52;;;;;;;12.88;4.07;;;;;;;;;;1035532;28;20066;-75
2023/03/26 01:51:27;;;;;;;6.47;4.80;;;;;;;;;;1035491;28;20052;-75
2023/03/26 01:51:58;;;;;;;9.52;3.92;;;;;;;;;;1034469;28;20391;-75
2023/03/26 01:52:30;;;;;;;13.25;5.82;;;;;;;;;;1033494;28;20109;-76
2023/03/26 01:53:01;;;;;;;14.60;4.97;;;;;;;;;;1029403;28;20574;-76
2023/03/26 01:53:32;;;;;;;9.95;3.75;;;;;;;;;;1028932;28;20026;-76
2023/03/26 01:54:04;;;;;;;10.18;3.75;;;;;;;;;;1035433;28;20026;-76
2023/03/26 01:54:36;;;;;;;17.48;5.18;;;;;;;;;;1039656;28;20029;-76
2023/03/26 01:55:10;;;;;;;4.82;3.80;;;;;;;;;;1043722;28;20044;-76
2023/03/26 01:55:54;;;;;;;20.33;5.18;;;;;;;;;;1041013;28;20090;-76
2023/03/26 01:56:37;;;;;;;5.57;4.18;;;;;;;;;;1035158;28;20022;-76
2023/03/26 01:57:11;;;;;;;17.92;5.05;;;;;;;;;;1035246;28;20079;-76
2023/03/26 01:57:41;;;;;;;16.15;5.18;;;;;;;;;;1035148;28;20013;-76
2023/03/26 01:58:37;;;;;;;12.98;8.63;;;;;;;;;;1035501;28;20021;-75
2023/03/26 01:59:20;;;;;;;11.35;5.75;;;;;;;;;;1029017;28;20034;-75
2023/03/26 02:00:10;;;;;;;14.95;8.20;;;;;;;;;;1032723;28;20030;-75
2023/03/26 02:00:49;;;;;;;13.30;8.10;;;;;;;;;;1035505;28;20024;-75
2023/03/26 02:01:26;;;;;;;13.88;8.63;;;;;;;;;;1035322;28;20569;-76
2023/03/26 02:02:01;;;;;;;19.67;9.48;;;;;;;;;;1031234;28;20080;-75
2023/03/26 02:02:44;;;;;;;10.13;8.18;;;;;;;;;;1028945;28;20030;-76
2023/03/26 02:03:18;;;;;;;15.00;9.40;;;;;;;;;;1032727;28;20101;-75
2023/03/26 02:04:11;;;;;;;12.50;9.85;;;;;;;;;;1034447;28;20075;-75
2023/03/26 02:04:51;;;;;;;12.18;6.78;;;;;;;;;;1028791;28;20026;-75
2023/03/26 02:05:29;;;;;;;17.27;10.35;;;;;;;;;;1031218;28;20406;-75
2023/03/26 02:06:10;;;;;;;11.38;7.28;;;;;;;;;;1031496;28;20105;-75
2023/03/26 02:06:43;;;;;;;14.10;6.82;;;;;;;;;;1034548;28;20108;-75
2023/03/26 02:07:33;;;;;;;16.15;6.35;;;;;;;;;;1033449;28;20014;-75
2023/03/26 02:08:15;;;;;;;15.40;7.30;;;;;;;;;;1035477;28;20018;-75
2023/03/26 02:08:55;;;;;;;13.55;6.20;;;;;;;;;;1034550;28;20033;-75
2023/03/26 02:09:28;;;;;;;14.15;6.68;;;;;;;;;;1035322;28;20123;-76
2023/03/26 02:10:01;;;;;;;18.50;6.78;;;;;;;;;;1034570;28;20022;-76
2023/03/26 02:10:34;;;;;;;20.90;8.48;;;;;;;;;;1035284;28;20030;-76
2023/03/26 02:11:10;;;;;;;15.30;8.52;;;;;;;;;;1035220;28;20117;-76
2023/03/26 02:11:42;;;;;;;18.58;11.48;;;;;;;;;;1035430;28;20025;-76
2023/03/26 02:12:13;;;;;;;22.20;13.95;;;;;;;;;;1034710;28;20026;-76
2023/03/26 02:12:44;;;;;;;22.88;12.00;;;;;;;;;;1035429;28;20036;-75
2023/03/26 02:13:14;;;;;;;17.42;10.80;;;;;;;;;;1035333;28;20057;-76
2023/03/26 02:13:45;;;;;;;23.63;11.77;;;;;;;;;;1035234;28;20030;-75
2023/03/26 02:14:16;;;;;;;48.55;13.88;;;;;;;;;;1035306;28;20029;-75
2023/03/26 02:14:46;;;;;;;17.77;9.27;;;;;;;;;;1035123;28;20120;-76
2023/03/26 02:15:17;;;;;;;14.63;9.07;;;;;;;;;;1031289;28;20054;-75
2023/03/26 02:15:57;;;;;;;12.15;7.53;;;;;;;;;;1031164;28;20032;-75
2023/03/26 02:16:28;;;;;;;18.58;8.38;;;;;;;;;;1035062;28;20013;-75
2023/03/26 02:16:58;;;;;;;11.25;7.85;;;;;;;;;;1035541;28;20017;-75
2023/03/26 02:17:31;;;;;;;19.52;7.13;;;;;;;;;;1034996;28;20037;-76
2023/03/26 02:18:02;;;;;;;14.88;7.75;;;;;;;;;;1035362;28;20022;-75
2023/03/26 02:18:37;;;;;;;15.82;5.50;;;;;;;;;;1035077;28;20026;-76
2023/03/26 02:19:14;;;;;;;11.52;5.65;;;;;;;;;;1035173;28;20022;-75
2023/03/26 02:19:46;;;;;;;6.15;3.83;;;;;;;;;;1032720;28;20152;-76
2023/03/26 02:20:18;;;;;;;6.45;3.13;;;;;;;;;;1035399;28;20486;-76
2023/03/26 02:20:51;;;;;;;7.68;3.67;;;;;;;;;;1035180;28;20029;-75
2023/03/26 02:21:24;;;;;;;9.68;4.88;;;;;;;;;;1035116;28;20032;-75
2023/03/26 02:21:58;;;;;;;7.15;3.08;;;;;;;;;;1035107;28;20049;-75
2023/03/26 02:22:28;;;;;;;8.05;3.33;;;;;;;;;;1035039;28;20367;-75
2023/03/26 02:22:59;;;;;;;11.75;4.00;;;;;;;;;;1036237;28;20026;-75
2023/03/26 02:23:34;;;;;;;6.00;1.70;;;;;;;;;;1034350;28;20045;-75
2023/03/26 02:24:05;;;;;;;8.30;3.15;;;;;;;;;;1036329;28;20481;-75
2023/03/26 02:24:37;;;;;;;7.63;2.38;;;;;;;;;;1033652;28;20046;-76
2023/03/26 02:25:09;;;;;;;8.90;3.78;;;;;;;;;;1034922;28;20189;-76
2023/03/26 02:25:42;;;;;;;2.88;2.10;;;;;;;;;;1035878;28;20033;-75
2023/03/26 02:26:17;;;;;;;5.10;2.92;;;;;;;;;;1032950;28;20026;-76
2023/03/26 02:26:47;;;;;;;10.75;5.55;;;;;;;;;;1033857;28;20031;-76
2023/03/26 02:27:18;;;;;;;13.15;5.45;;;;;;;;;;1031715;28;20026;-76
2023/03/26 02:27:49;;;;;;;6.72;3.67;;;;;;;;;;1031997;28;20113;-76
2023/03/26 02:28:20;;;;;;;2.63;1.45;;;;;;;;;;1034379;28;20839;-76
2023/03/26 02:28:51;;;;;;;2.55;2.10;;;;;;;;;;1032143;28;20033;-76
2023/03/26 02:29:21;;;;;;;9.98;5.00;;;;;;;;;;1036190;28;20068;-76
2023/03/26 02:29:52;;;;;;;7.15;3.20;;;;;;;;;;1036087;28;20405;-76
2023/03/26 02:30:28;;;;;;;22.10;4.18;;;;;;;;;;1036174;28;20397;-76
2023/03/26 02:31:00;;;;;;;10.00;2.90;;;;;;;;;;1036144;28;20022;-76
2023/03/26 02:31:31;;;;;;;8.20;2.17;;;;;;;;;;1036025;28;20053;-76
2023/03/26 02:32:03;;;;;;;21.10;5.97;;;;;;;;;;1034239;28;20026;-76
2023/03/26 02:32:34;;;;;;;5.90;3.00;;;;;;;;;;1034386;28;20037;-76
2023/03/26 02:33:05;;;;;;;6.97;3.83;;;;;;;;;;1036237;28;20533;-76
2023/03/26 02:33:35;;;;;;;11.05;3.72;;;;;;;;;;1035913;28;20025;-76
2023/03/26 02:34:06;;;;;;;11.65;2.80;;;;;;;;;;1036170;28;20021;-76
2023/03/26 02:34:37;;;;;;;6.32;3.70;;;;;;;;;;1031995;28;20026;-76
2023/03/26 02:35:07;;;;;;;6.72;3.15;;;;;;;;;;1036062;28;20028;-76
2023/03/26 02:35:44;;;;;;;8.13;2.83;;;;;;;;;;1035961;28;20060;-76
2023/03/26 02:36:18;;;;;;;4.60;2.53;;;;;;;;;;1039294;28;20028;-75
2023/03/26 02:36:48;;;;;;;10.02;3.60;;;;;;;;;;1041274;28;20029;-76
2023/03/26 02:37:19;;;;;;;4.93;3.03;;;;;;;;;;1044431;28;20025;-75
2023/03/26 02:37:49;;;;;;;2.63;2.10;;;;;;;;;;1043295;28;20025;-76
2023/03/26 02:38:20;;;;;;;5.30;3.10;;;;;;;;;;1035993;28;20022;-76
2023/03/26 02:38:50;;;;;;;1.77;1.67;;;;;;;;;;1035945;28;20481;-76
2023/03/26 02:39:21;;;;;;;10.98;4.00;;;;;;;;;;1036211;28;20080;-76
2023/03/26 02:39:51;;;;;;;7.38;3.45;;;;;;;;;;1036016;28;20029;-76
2023/03/26 02:40:22;;;;;;;12.15;4.68;;;;;;;;;;1036509;28;20470;-76
2023/03/26 02:40:53;;;;;;;6.95;3.15;;;;;;;;;;1036346;28;20390;-76
2023/03/26 02:41:23;;;;;;;8.02;3.25;;;;;;;;;;1036603;28;20022;-76
2023/03/26 02:41:54;;;;;;;7.82;2.47;;;;;;;;;;1036628;28;20110;-76
2023/03/26 02:42:24;;;;;;;8.35;2.97;;;;;;;;;;1035972;28;20542;-76
2023/03/26 02:42:55;;;;;;;5.03;2.42;;;;;;;;;;1031915;28;20019;-75
2023/03/26 02:43:26;;;;;;;6.13;2.80;;;;;;;;;;1031830;28;20494;-76
2023/03/26 02:43:56;;;;;;;5.32;3.33;;;;;;;;;;1032170;28;20538;-76
2023/03/26 02:44:27;;;;;;;7.95;4.30;;;;;;;;;;1035862;28;20494;-76
2023/03/26 02:44:57;;;;;;;16.42;5.20;;;;;;;;;;1035376;28;20025;-76
2023/03/26 02:45:28;;;;;;;14.73;3.63;;;;;;;;;;1034739;28;20026;-75
2023/03/26 02:45:58;;;;;;;10.00;2.10;;;;;;;;;;1035051;28;20064;-76
2023/03/26 02:46:29;;;;;;;6.47;3.83;;;;;;;;;;1033691;28;20065;-76
2023/03/26 02:46:59;;;;;;;10.48;3.63;;;;;;;;;;1034205;28;20072;-75
2023/03/26 02:47:30;;;;;;;12.30;2.50;;;;;;;;;;1033822;28;20034;-75
2023/03/26 02:48:00;;;;;;;15.02;4.60;;;;;;;;;;1034267;28;20026;-76
2023/03/26 02:48:33;;;;;;;6.57;4.68;;;;;;;;;;1031718;28;20034;-76
2023/03/26 02:49:04;;;;;;;11.55;4.05;;;;;;;;;;1032581;28;20064;-75
2023/03/26 02:49:34;;;;;;;14.70;4.47;;;;;;;;;;1032215;28;20022;-76
2023/03/26 02:50:05;;;;;;;4.22;2.65;;;;;;;;;;1036253;28;20121;-75
2023/03/26 02:50:35;;;;;;;24.90;4.25;;;;;;;;;;1035735;28;20025;-75
2023/03/26 02:51:06;;;;;;;12.02;4.43;;;;;;;;;;1035692;28;20029;-75
2023/03/26 02:51:36;;;;;;;7.80;3.88;;;;;;;;;;1035651;28;20033;-75
2023/03/26 02:52:07;;;;;;;11.10;5.75;;;;;;;;;;1036461;28;20026;-76
2023/03/26 02:52:38;;;;;;;28.58;5.60;;;;;;;;;;1036108;28;20021;-75
2023/03/26 02:53:08;;;;;;;17.10;7.32;;;;;;;;;;1036434;28;20022;-75
2023/03/26 02:53:40;;;;;;;5.30;2.90;;;;;;;;;;1036243;28;20686;-75
2023/03/26 02:54:10;;;;;;;9.73;4.18;;;;;;;;;;1036414;28;20468;-75
2023/03/26 02:54:40;;;;;;;10.57;5.07;;;;;;;;;;1035909;28;20036;-75
2023/03/26 02:55:11;;;;;;;8.45;4.32;;;;;;;;;;1036420;28;20498;-75
2023/03/26 02:55:42;;;;;;;16.55;5.82;;;;;;;;;;1035800;28;20120;-75
2023/03/26 02:56:12;;;;;;;13.07;4.47;;;;;;;;;;1036509;28;20506;-75
2023/03/26 02:56:42;;;;;;;11.68;3.92;;;;;;;;;;1035014;28;20029;-75
2023/03/26 02:57:13;;;;;;;8.68;3.50;;;;;;;;;;1035336;28;20117;-76
2023/03/26 02:57:44;;;;;;;29.20;8.32;;;;;;;;;;1036265;28;20018;-76
2023/03/26 02:58:16;;;;;;;16.27;6.10;;;;;;;;;;1036056;28;20018;-75
2023/03/26 02:58:47;;;;;;;8.80;5.05;;;;;;;;;;1035849;28;20461;-76
2023/03/26 02:59:17;;;;;;;11.65;4.68;;;;;;;;;;1036111;28;20026;-76
2023/03/26 02:59:49;;;;;;;18.83;5.53;;;;;;;;;;1036011;28;20022;-76
2023/03/26 03:00:21;;;;;;;10.98;2.80;;;;;;;;;;1036446;28;20436;-76
2023/03/26 03:00:55;;;;;;;9.02;4.07;;;;;;;;;;1035632;28;20033;-76
2023/03/26 03:01:25;;;;;;;6.70;3.63;;;;;;;;;;1036057;28;20482;-76
2023/03/26 03:01:55;;;;;;;16.52;5.55;;;;;;;;;;1036139;28;20029;-76
2023/03/26 03:02:27;;;;;;;12.15;4.03;;;;;;;;;;1036082;28;20037;-75
2023/03/26 03:02:58;;;;;;;7.03;3.30;;;;;;;;;;1035268;28;20029;-76
2023/03/26 03:03:29;;;;;;;3.38;2.90;;;;;;;;;;1036092;28;20044;-75
2023/03/26 03:04:00;;;;;;;12.57;4.38;;;;;;;;;;1036519;28;20132;-75
2023/03/26 03:04:31;;;;;;;8.70;3.63;;;;;;;;;;1035666;28;20517;-76
2023/03/26 03:05:04;;;;;;;9.13;3.70;;;;;;;;;;1036152;28;20034;-76
2023/03/26 03:05:36;;;;;;;5.53;4.03;;;;;;;;;;1035825;28;20029;-75
2023/03/26 03:06:07;;;;;;;8.98;4.05;;;;;;;;;;1035368;28;20394;-76
2023/03/26 03:06:39;;;;;;;16.65;5.07;;;;;;;;;;1035677;28;20070;-75
2023/03/26 03:07:13;;;;;;;4.68;3.08;;;;;;;;;;1036063;28;20065;-76
2023/03/26 03:07:45;;;;;;;9.02;3.55;;;;;;;;;;1035794;28;20014;-76
2023/03/26 03:08:17;;;;;;;16.50;5.03;;;;;;;;;;1035999;28;20146;-76
2023/03/26 03:08:47;;;;;;;11.95;2.95;;;;;;;;;;1035732;28;20034;-76
2023/03/26 03:09:18;;;;;;;4.97;3.95;;;;;;;;;;1036159;28;20030;-76
2023/03/26 03:09:49;;;;;;;22.00;3.50;;;;;;;;;;1036211;28;20034;-75
2023/03/26 03:10:20;;;;;;;16.35;4.65;;;;;;;;;;1036422;28;20498;-75
2023/03/26 03:11:17;;;;;;;5.40;2.92;;;;;;;;;;1035731;28;20025;-76
2023/03/26 03:11:47;;;;;;;7.78;4.00;;;;;;;;;;1033658;28;20041;-76
2023/03/26 03:12:18;;;;;;;5.95;4.20;;;;;;;;;;1036074;28;20080;-75
2023/03/26 03:12:48;;;;;;;8.27;4.07;;;;;;;;;;1036063;28;20029;-76
2023/03/26 03:13:19;;;;;;;8.30;4.65;;;;;;;;;;1036285;28;20032;-76
2023/03/26 03:13:50;;;;;;;7.78;3.17;;;;;;;;;;1035739;28;20029;-76
2023/03/26 03:14:21;;;;;;;2.38;1.67;;;;;;;;;;1035335;28;20028;-76
2023/03/26 03:14:51;;;;;;;6.40;4.07;;;;;;;;;;1033412;28;20018;-76
2023/03/26 03:15:21;;;;;;;10.10;4.72;;;;;;;;;;1031001;28;20026;-75
2023/03/26 03:15:52;;;;;;;23.63;4.43;;;;;;;;;;1033911;28;20032;-75
2023/03/26 03:16:23;;;;;;;7.80;3.00;;;;;;;;;;1036054;28;20028;-76
2023/03/26 03:16:53;;;;;;;8.73;4.00;;;;;;;;;;1035839;28;20060;-76
2023/03/26 03:17:24;;;;;;;19.42;4.93;;;;;;;;;;1036195;28;20083;-76